Terminal Aerodrome Forecast
Issued by NWS

Home | Current Version | Previous Version | Text Only | Print | Product List | Glossary On
Versions: 1 2 3 4 5 6 7 8 9 10 11 12 13
000
FTUS44 KLZK 171100
TAFLLQ
TAF
KLLQ 171120Z 1712/1812 VRB02KT P6SM FEW250
     FM171800 14006KT P6SM FEW050 SCT100 BKN250
     FM180000 VRB02KT P6SM VCSH BKN050 BKN100
     FM180600 VRB02KT P6SM BKN050 BKN100=

USA.gov is the U.S. government's official web portal to all federal, state and local government web resources and services.